sensor_id;sensor_type;location;lat;lon;timestamp;P1;durP1;ratioP1;P2;durP2;ratioP2
11203;SDS011;5659;49.408;11.116;2022-09-03T00:00:19;3.95;;;1.50;;
11203;SDS011;5659;49.408;11.116;2022-09-03T00:07:53;3.33;;;1.63;;
11203;SDS011;5659;49.408;11.116;2022-09-03T00:10:26;3.60;;;1.63;;
11203;SDS011;5659;49.408;11.116;2022-09-03T00:12:55;1.58;;;1.48;;
11203;SDS011;5659;49.408;11.116;2022-09-03T00:15:22;4.30;;;1.52;;
11203;SDS011;5659;49.408;11.116;2022-09-03T00:17:55;1.98;;;1.67;;
11203;SDS011;5659;49.408;11.116;2022-09-03T00:22:50;1.85;;;1.63;;
11203;SDS011;5659;49.408;11.116;2022-09-03T00:25:40;2.63;;;1.88;;
11203;SDS011;5659;49.408;11.116;2022-09-03T00:28:05;2.15;;;1.63;;
11203;SDS011;5659;49.408;11.116;2022-09-03T00:30:32;3.15;;;1.70;;
11203;SDS011;5659;49.408;11.116;2022-09-03T00:33:02;4.80;;;1.80;;
11203;SDS011;5659;49.408;11.116;2022-09-03T00:37:57;2.27;;;1.80;;
11203;SDS011;5659;49.408;11.116;2022-09-03T00:40:31;2.55;;;1.52;;
11203;SDS011;5659;49.408;11.116;2022-09-03T00:48:29;3.58;;;1.90;;
11203;SDS011;5659;49.408;11.116;2022-09-03T00:51:14;2.22;;;2.03;;
11203;SDS011;5659;49.408;11.116;2022-09-03T00:53:49;2.05;;;1.45;;
11203;SDS011;5659;49.408;11.116;2022-09-03T00:58:50;2.80;;;1.60;;
11203;SDS011;5659;49.408;11.116;2022-09-03T01:01:20;3.55;;;1.60;;
11203;SDS011;5659;49.408;11.116;2022-09-03T01:11:53;5.15;;;1.65;;
11203;SDS011;5659;49.408;11.116;2022-09-03T01:14:32;5.93;;;1.85;;
11203;SDS011;5659;49.408;11.116;2022-09-03T01:17:05;2.00;;;1.80;;
11203;SDS011;5659;49.408;11.116;2022-09-03T01:19:46;4.00;;;1.80;;
11203;SDS011;5659;49.408;11.116;2022-09-03T01:30:13;2.60;;;1.70;;
11203;SDS011;5659;49.408;11.116;2022-09-03T01:35:30;3.40;;;2.42;;
11203;SDS011;5659;49.408;11.116;2022-09-03T01:40:52;3.63;;;1.83;;
11203;SDS011;5659;49.408;11.116;2022-09-03T01:43:39;2.63;;;1.60;;
11203;SDS011;5659;49.408;11.116;2022-09-03T01:46:12;3.70;;;1.77;;
11203;SDS011;5659;49.408;11.116;2022-09-03T01:48:52;2.30;;;1.77;;
11203;SDS011;5659;49.408;11.116;2022-09-03T01:51:24;3.90;;;1.73;;
11203;SDS011;5659;49.408;11.116;2022-09-03T01:56:36;5.03;;;2.15;;
11203;SDS011;5659;49.408;11.116;2022-09-03T02:01:32;3.17;;;1.92;;
11203;SDS011;5659;49.408;11.116;2022-09-03T02:03:59;4.70;;;1.80;;
11203;SDS011;5659;49.408;11.116;2022-09-03T02:06:26;3.75;;;2.10;;
11203;SDS011;5659;49.408;11.116;2022-09-03T02:08:56;8.23;;;2.05;;
11203;SDS011;5659;49.408;11.116;2022-09-03T02:11:22;5.72;;;2.10;;
11203;SDS011;5659;49.408;11.116;2022-09-03T02:13:51;2.07;;;1.87;;
11203;SDS011;5659;49.408;11.116;2022-09-03T02:16:21;3.27;;;1.80;;
11203;SDS011;5659;49.408;11.116;2022-09-03T02:19:07;4.33;;;2.13;;
11203;SDS011;5659;49.408;11.116;2022-09-03T02:21:38;10.70;;;2.97;;
11203;SDS011;5659;49.408;11.116;2022-09-03T02:24:05;5.20;;;2.27;;
11203;SDS011;5659;49.408;11.116;2022-09-03T02:26:32;4.03;;;2.17;;
11203;SDS011;5659;49.408;11.116;2022-09-03T02:28:58;3.87;;;2.07;;
11203;SDS011;5659;49.408;11.116;2022-09-03T02:31:26;3.27;;;2.23;;
11203;SDS011;5659;49.408;11.116;2022-09-03T02:33:52;5.43;;;2.33;;
11203;SDS011;5659;49.408;11.116;2022-09-03T02:36:20;6.33;;;2.70;;
11203;SDS011;5659;49.408;11.116;2022-09-03T02:38:50;4.50;;;2.40;;
11203;SDS011;5659;49.408;11.116;2022-09-03T02:41:16;8.00;;;2.20;;
11203;SDS011;5659;49.408;11.116;2022-09-03T02:46:09;2.43;;;2.03;;
11203;SDS011;5659;49.408;11.116;2022-09-03T02:48:38;4.27;;;2.30;;
11203;SDS011;5659;49.408;11.116;2022-09-03T02:51:04;5.73;;;2.37;;
11203;SDS011;5659;49.408;11.116;2022-09-03T02:53:29;4.60;;;2.23;;
11203;SDS011;5659;49.408;11.116;2022-09-03T02:55:59;4.93;;;2.47;;
11203;SDS011;5659;49.408;11.116;2022-09-03T02:58:25;2.93;;;2.10;;
11203;SDS011;5659;49.408;11.116;2022-09-03T03:00:52;3.40;;;2.43;;
11203;SDS011;5659;49.408;11.116;2022-09-03T03:03:18;2.70;;;2.23;;
11203;SDS011;5659;49.408;11.116;2022-09-03T03:05:45;2.40;;;2.20;;
11203;SDS011;5659;49.408;11.116;2022-09-03T03:08:12;2.90;;;2.30;;
11203;SDS011;5659;49.408;11.116;2022-09-03T03:10:39;4.30;;;2.50;;
11203;SDS011;5659;49.408;11.116;2022-09-03T03:13:07;3.83;;;2.40;;
11203;SDS011;5659;49.408;11.116;2022-09-03T03:15:33;3.83;;;2.10;;
11203;SDS011;5659;49.408;11.116;2022-09-03T03:17:59;2.80;;;2.20;;
11203;SDS011;5659;49.408;11.116;2022-09-03T03:20:25;3.07;;;2.30;;
11203;SDS011;5659;49.408;11.116;2022-09-03T03:22:51;5.17;;;2.20;;
11203;SDS011;5659;49.408;11.116;2022-09-03T03:25:17;4.03;;;2.70;;
11203;SDS011;5659;49.408;11.116;2022-09-03T03:27:43;5.07;;;2.23;;
11203;SDS011;5659;49.408;11.116;2022-09-03T03:30:09;5.50;;;2.27;;
11203;SDS011;5659;49.408;11.116;2022-09-03T03:32:35;2.63;;;2.40;;
11203;SDS011;5659;49.408;11.116;2022-09-03T03:35:02;5.83;;;2.37;;
11203;SDS011;5659;49.408;11.116;2022-09-03T03:37:28;4.20;;;2.70;;
11203;SDS011;5659;49.408;11.116;2022-09-03T03:39:54;6.00;;;2.17;;
11203;SDS011;5659;49.408;11.116;2022-09-03T03:42:20;5.10;;;2.53;;
11203;SDS011;5659;49.408;11.116;2022-09-03T03:44:46;2.57;;;2.37;;
11203;SDS011;5659;49.408;11.116;2022-09-03T03:47:13;4.10;;;2.70;;
11203;SDS011;5659;49.408;11.116;2022-09-03T03:49:41;3.10;;;2.67;;
11203;SDS011;5659;49.408;11.116;2022-09-03T03:52:07;6.80;;;3.00;;
11203;SDS011;5659;49.408;11.116;2022-09-03T03:54:33;2.97;;;2.50;;
11203;SDS011;5659;49.408;11.116;2022-09-03T03:56:59;2.70;;;2.50;;
11203;SDS011;5659;49.408;11.116;2022-09-03T03:59:25;4.10;;;2.70;;
11203;SDS011;5659;49.408;11.116;2022-09-03T04:01:53;2.83;;;2.30;;
11203;SDS011;5659;49.408;11.116;2022-09-03T04:04:19;2.73;;;2.50;;
11203;SDS011;5659;49.408;11.116;2022-09-03T04:06:45;5.03;;;2.47;;
11203;SDS011;5659;49.408;11.116;2022-09-03T04:09:11;3.00;;;2.40;;
11203;SDS011;5659;49.408;11.116;2022-09-03T04:11:37;3.20;;;2.17;;
11203;SDS011;5659;49.408;11.116;2022-09-03T04:14:03;3.30;;;2.43;;
11203;SDS011;5659;49.408;11.116;2022-09-03T04:16:29;4.47;;;2.40;;
11203;SDS011;5659;49.408;11.116;2022-09-03T04:18:56;2.50;;;2.30;;
11203;SDS011;5659;49.408;11.116;2022-09-03T04:21:27;3.50;;;2.60;;
11203;SDS011;5659;49.408;11.116;2022-09-03T04:23:54;3.67;;;2.53;;
11203;SDS011;5659;49.408;11.116;2022-09-03T04:26:21;2.90;;;2.60;;
11203;SDS011;5659;49.408;11.116;2022-09-03T04:28:47;5.60;;;2.40;;
11203;SDS011;5659;49.408;11.116;2022-09-03T04:31:14;5.43;;;2.20;;
11203;SDS011;5659;49.408;11.116;2022-09-03T04:33:41;2.83;;;2.30;;
11203;SDS011;5659;49.408;11.116;2022-09-03T04:36:16;2.77;;;2.40;;
11203;SDS011;5659;49.408;11.116;2022-09-03T04:38:43;3.10;;;2.10;;
11203;SDS011;5659;49.408;11.116;2022-09-03T04:41:11;4.43;;;2.40;;
11203;SDS011;5659;49.408;11.116;2022-09-03T04:43:38;4.30;;;1.93;;
11203;SDS011;5659;49.408;11.116;2022-09-03T04:46:06;4.17;;;2.17;;
11203;SDS011;5659;49.408;11.116;2022-09-03T04:48:33;2.70;;;2.27;;
11203;SDS011;5659;49.408;11.116;2022-09-03T04:51:07;4.50;;;2.10;;
11203;SDS011;5659;49.408;11.116;2022-09-03T04:53:34;2.67;;;2.27;;
11203;SDS011;5659;49.408;11.116;2022-09-03T04:56:00;3.00;;;2.10;;
11203;SDS011;5659;49.408;11.116;2022-09-03T04:58:27;3.27;;;2.37;;
11203;SDS011;5659;49.408;11.116;2022-09-03T05:00:52;4.40;;;2.30;;
11203;SDS011;5659;49.408;11.116;2022-09-03T05:03:19;5.10;;;2.27;;
11203;SDS011;5659;49.408;11.116;2022-09-03T05:05:55;2.97;;;2.23;;
11203;SDS011;5659;49.408;11.116;2022-09-03T05:08:21;5.67;;;2.17;;
11203;SDS011;5659;49.408;11.116;2022-09-03T05:10:47;5.77;;;2.20;;
11203;SDS011;5659;49.408;11.116;2022-09-03T05:13:13;3.40;;;2.15;;
11203;SDS011;5659;49.408;11.116;2022-09-03T05:15:39;3.63;;;2.42;;
11203;SDS011;5659;49.408;11.116;2022-09-03T05:18:09;3.53;;;2.13;;
11203;SDS011;5659;49.408;11.116;2022-09-03T05:20:35;3.17;;;2.05;;
11203;SDS011;5659;49.408;11.116;2022-09-03T05:23:01;5.15;;;2.20;;
11203;SDS011;5659;49.408;11.116;2022-09-03T05:25:28;2.87;;;2.40;;
11203;SDS011;5659;49.408;11.116;2022-09-03T05:27:56;3.95;;;2.20;;
11203;SDS011;5659;49.408;11.116;2022-09-03T05:30:22;5.00;;;2.10;;
11203;SDS011;5659;49.408;11.116;2022-09-03T05:32:49;4.13;;;1.90;;
11203;SDS011;5659;49.408;11.116;2022-09-03T05:35:16;4.25;;;2.15;;
11203;SDS011;5659;49.408;11.116;2022-09-03T05:37:42;4.10;;;2.30;;
11203;SDS011;5659;49.408;11.116;2022-09-03T05:40:08;4.22;;;2.33;;
11203;SDS011;5659;49.408;11.116;2022-09-03T05:42:36;4.03;;;2.70;;
11203;SDS011;5659;49.408;11.116;2022-09-03T05:45:06;5.50;;;2.50;;
11203;SDS011;5659;49.408;11.116;2022-09-03T05:47:34;3.67;;;2.33;;
11203;SDS011;5659;49.408;11.116;2022-09-03T05:50:01;2.93;;;2.17;;
11203;SDS011;5659;49.408;11.116;2022-09-03T05:52:27;5.00;;;2.60;;
11203;SDS011;5659;49.408;11.116;2022-09-03T05:54:53;3.17;;;2.30;;
11203;SDS011;5659;49.408;11.116;2022-09-03T05:57:19;4.28;;;2.40;;
11203;SDS011;5659;49.408;11.116;2022-09-03T05:59:45;4.80;;;2.38;;
11203;SDS011;5659;49.408;11.116;2022-09-03T06:02:11;6.90;;;2.25;;
11203;SDS011;5659;49.408;11.116;2022-09-03T06:04:37;3.65;;;2.53;;
11203;SDS011;5659;49.408;11.116;2022-09-03T06:07:03;4.35;;;2.20;;
11203;SDS011;5659;49.408;11.116;2022-09-03T06:09:29;5.20;;;2.47;;
11203;SDS011;5659;49.408;11.116;2022-09-03T06:11:55;4.75;;;2.35;;
11203;SDS011;5659;49.408;11.116;2022-09-03T06:14:21;2.60;;;1.95;;
11203;SDS011;5659;49.408;11.116;2022-09-03T06:16:47;2.95;;;2.10;;
11203;SDS011;5659;49.408;11.116;2022-09-03T06:19:14;3.40;;;2.17;;
11203;SDS011;5659;49.408;11.116;2022-09-03T06:21:41;3.53;;;2.10;;
11203;SDS011;5659;49.408;11.116;2022-09-03T06:24:09;6.50;;;2.15;;
11203;SDS011;5659;49.408;11.116;2022-09-03T06:26:36;2.80;;;1.90;;
11203;SDS011;5659;49.408;11.116;2022-09-03T06:29:02;5.30;;;1.85;;
11203;SDS011;5659;49.408;11.116;2022-09-03T06:31:28;3.45;;;2.03;;
11203;SDS011;5659;49.408;11.116;2022-09-03T06:33:54;4.53;;;2.03;;
11203;SDS011;5659;49.408;11.116;2022-09-03T06:36:20;3.33;;;1.80;;
11203;SDS011;5659;49.408;11.116;2022-09-03T06:38:47;3.28;;;1.80;;
11203;SDS011;5659;49.408;11.116;2022-09-03T06:41:14;5.82;;;2.20;;
11203;SDS011;5659;49.408;11.116;2022-09-03T06:43:47;2.58;;;2.17;;
11203;SDS011;5659;49.408;11.116;2022-09-03T06:46:18;4.15;;;2.00;;
11203;SDS011;5659;49.408;11.116;2022-09-03T06:48:45;6.63;;;2.30;;
11203;SDS011;5659;49.408;11.116;2022-09-03T06:51:12;3.45;;;1.75;;
11203;SDS011;5659;49.408;11.116;2022-09-03T06:53:39;7.18;;;2.00;;
11203;SDS011;5659;49.408;11.116;2022-09-03T06:56:07;5.25;;;1.90;;
11203;SDS011;5659;49.408;11.116;2022-09-03T06:58:34;2.05;;;1.83;;
11203;SDS011;5659;49.408;11.116;2022-09-03T07:01:05;3.88;;;1.95;;
11203;SDS011;5659;49.408;11.116;2022-09-03T07:03:35;2.63;;;1.55;;
11203;SDS011;5659;49.408;11.116;2022-09-03T07:06:02;1.90;;;1.70;;
11203;SDS011;5659;49.408;11.116;2022-09-03T07:08:29;6.03;;;1.90;;
11203;SDS011;5659;49.408;11.116;2022-09-03T07:10:56;3.10;;;1.77;;
11203;SDS011;5659;49.408;11.116;2022-09-03T07:13:23;2.85;;;1.70;;
11203;SDS011;5659;49.408;11.116;2022-09-03T07:15:57;6.78;;;1.73;;
11203;SDS011;5659;49.408;11.116;2022-09-03T07:18:22;3.15;;;1.77;;
11203;SDS011;5659;49.408;11.116;2022-09-03T07:20:48;2.63;;;1.80;;
11203;SDS011;5659;49.408;11.116;2022-09-03T07:23:14;2.35;;;1.58;;
11203;SDS011;5659;49.408;11.116;2022-09-03T07:25:40;2.70;;;1.65;;
11203;SDS011;5659;49.408;11.116;2022-09-03T07:28:06;7.07;;;1.83;;
11203;SDS011;5659;49.408;11.116;2022-09-03T07:30:32;3.95;;;1.63;;
11203;SDS011;5659;49.408;11.116;2022-09-03T07:32:58;6.47;;;1.60;;
11203;SDS011;5659;49.408;11.116;2022-09-03T07:35:28;3.30;;;1.35;;
11203;SDS011;5659;49.408;11.116;2022-09-03T07:37:54;1.80;;;1.30;;
11203;SDS011;5659;49.408;11.116;2022-09-03T07:40:20;2.10;;;1.50;;
11203;SDS011;5659;49.408;11.116;2022-09-03T07:42:46;1.40;;;1.30;;
11203;SDS011;5659;49.408;11.116;2022-09-03T07:45:12;5.72;;;1.75;;
11203;SDS011;5659;49.408;11.116;2022-09-03T07:47:47;4.90;;;1.70;;
11203;SDS011;5659;49.408;11.116;2022-09-03T07:50:14;2.50;;;1.35;;
11203;SDS011;5659;49.408;11.116;2022-09-03T07:52:40;4.88;;;1.70;;
11203;SDS011;5659;49.408;11.116;2022-09-03T07:55:06;6.30;;;1.70;;
11203;SDS011;5659;49.408;11.116;2022-09-03T07:57:33;4.63;;;1.70;;
11203;SDS011;5659;49.408;11.116;2022-09-03T07:59:59;3.83;;;1.73;;
11203;SDS011;5659;49.408;11.116;2022-09-03T08:02:25;3.20;;;1.63;;
11203;SDS011;5659;49.408;11.116;2022-09-03T08:04:51;2.55;;;1.40;;
11203;SDS011;5659;49.408;11.116;2022-09-03T08:07:17;4.43;;;1.40;;
11203;SDS011;5659;49.408;11.116;2022-09-03T08:09:43;3.47;;;1.48;;
11203;SDS011;5659;49.408;11.116;2022-09-03T08:12:09;11.32;;;1.65;;
11203;SDS011;5659;49.408;11.116;2022-09-03T08:14:35;2.00;;;1.60;;
11203;SDS011;5659;49.408;11.116;2022-09-03T08:17:01;1.90;;;1.63;;
11203;SDS011;5659;49.408;11.116;2022-09-03T08:19:27;1.98;;;1.45;;
11203;SDS011;5659;49.408;11.116;2022-09-03T08:21:53;2.70;;;1.50;;
11203;SDS011;5659;49.408;11.116;2022-09-03T08:24:18;1.48;;;1.23;;
11203;SDS011;5659;49.408;11.116;2022-09-03T08:26:46;1.73;;;1.52;;
11203;SDS011;5659;49.408;11.116;2022-09-03T08:29:12;3.13;;;1.50;;
11203;SDS011;5659;49.408;11.116;2022-09-03T08:31:38;3.30;;;1.85;;
11203;SDS011;5659;49.408;11.116;2022-09-03T08:34:05;3.15;;;1.48;;
11203;SDS011;5659;49.408;11.116;2022-09-03T08:36:35;4.20;;;1.75;;
11203;SDS011;5659;49.408;11.116;2022-09-03T08:39:02;2.85;;;1.85;;
11203;SDS011;5659;49.408;11.116;2022-09-03T08:41:38;3.50;;;1.50;;
11203;SDS011;5659;49.408;11.116;2022-09-03T08:46:45;3.80;;;1.65;;
11203;SDS011;5659;49.408;11.116;2022-09-03T08:49:13;2.85;;;1.58;;
11203;SDS011;5659;49.408;11.116;2022-09-03T08:51:40;4.05;;;1.42;;
11203;SDS011;5659;49.408;11.116;2022-09-03T08:54:08;3.42;;;1.50;;
11203;SDS011;5659;49.408;11.116;2022-09-03T08:56:36;7.13;;;1.63;;
11203;SDS011;5659;49.408;11.116;2022-09-03T08:59:03;3.47;;;1.80;;
11203;SDS011;5659;49.408;11.116;2022-09-03T09:06:30;6.65;;;1.50;;
11203;SDS011;5659;49.408;11.116;2022-09-03T09:11:47;2.30;;;1.40;;
11203;SDS011;5659;49.408;11.116;2022-09-03T09:14:22;2.17;;;1.50;;
11203;SDS011;5659;49.408;11.116;2022-09-03T09:22:02;3.67;;;1.83;;
11203;SDS011;5659;49.408;11.116;2022-09-03T09:24:32;3.35;;;1.60;;
11203;SDS011;5659;49.408;11.116;2022-09-03T09:27:02;2.60;;;1.40;;
11203;SDS011;5659;49.408;11.116;2022-09-03T09:29:31;2.00;;;1.35;;
11203;SDS011;5659;49.408;11.116;2022-09-03T09:31:57;9.23;;;1.85;;
11203;SDS011;5659;49.408;11.116;2022-09-03T09:34:23;3.78;;;1.40;;
11203;SDS011;5659;49.408;11.116;2022-09-03T09:36:50;4.10;;;1.40;;
11203;SDS011;5659;49.408;11.116;2022-09-03T09:39:17;4.18;;;1.38;;
11203;SDS011;5659;49.408;11.116;2022-09-03T09:41:55;2.90;;;1.52;;
11203;SDS011;5659;49.408;11.116;2022-09-03T09:44:24;4.30;;;1.55;;
11203;SDS011;5659;49.408;11.116;2022-09-03T09:46:50;8.85;;;1.92;;
11203;SDS011;5659;49.408;11.116;2022-09-03T09:49:30;6.78;;;1.50;;
11203;SDS011;5659;49.408;11.116;2022-09-03T09:52:01;7.03;;;1.40;;
11203;SDS011;5659;49.408;11.116;2022-09-03T09:54:27;3.90;;;1.55;;
11203;SDS011;5659;49.408;11.116;2022-09-03T09:57:00;2.00;;;1.40;;
11203;SDS011;5659;49.408;11.116;2022-09-03T09:59:27;3.65;;;1.63;;
11203;SDS011;5659;49.408;11.116;2022-09-03T10:02:02;2.88;;;1.60;;
11203;SDS011;5659;49.408;11.116;2022-09-03T10:04:29;1.88;;;1.45;;
11203;SDS011;5659;49.408;11.116;2022-09-03T10:07:01;6.68;;;1.73;;
11203;SDS011;5659;49.408;11.116;2022-09-03T10:09:29;4.53;;;1.30;;
11203;SDS011;5659;49.408;11.116;2022-09-03T10:14:31;4.18;;;1.75;;
11203;SDS011;5659;49.408;11.116;2022-09-03T10:17:10;2.72;;;1.55;;
11203;SDS011;5659;49.408;11.116;2022-09-03T10:22:37;1.77;;;1.40;;
11203;SDS011;5659;49.408;11.116;2022-09-03T10:25:05;3.03;;;1.77;;
11203;SDS011;5659;49.408;11.116;2022-09-03T10:27:32;3.28;;;1.80;;
11203;SDS011;5659;49.408;11.116;2022-09-03T10:29:59;2.60;;;1.50;;
11203;SDS011;5659;49.408;11.116;2022-09-03T10:32:34;4.15;;;1.40;;
11203;SDS011;5659;49.408;11.116;2022-09-03T10:42:47;4.72;;;1.60;;
11203;SDS011;5659;49.408;11.116;2022-09-03T10:48:04;3.22;;;1.52;;
11203;SDS011;5659;49.408;11.116;2022-09-03T10:50:43;8.60;;;1.65;;
11203;SDS011;5659;49.408;11.116;2022-09-03T10:53:18;4.05;;;1.40;;
11203;SDS011;5659;49.408;11.116;2022-09-03T10:55:54;3.45;;;1.63;;
11203;SDS011;5659;49.408;11.116;2022-09-03T10:58:47;1.83;;;1.40;;
11203;SDS011;5659;49.408;11.116;2022-09-03T11:01:13;4.60;;;1.67;;
11203;SDS011;5659;49.408;11.116;2022-09-03T11:06:26;4.05;;;1.83;;
11203;SDS011;5659;49.408;11.116;2022-09-03T11:09:00;1.95;;;1.38;;
11203;SDS011;5659;49.408;11.116;2022-09-03T11:11:32;3.35;;;1.58;;
11203;SDS011;5659;49.408;11.116;2022-09-03T11:14:01;5.38;;;1.90;;
11203;SDS011;5659;49.408;11.116;2022-09-03T11:16:31;3.30;;;1.70;;
11203;SDS011;5659;49.408;11.116;2022-09-03T11:19:09;6.25;;;1.83;;
11203;SDS011;5659;49.408;11.116;2022-09-03T11:21:36;4.60;;;1.65;;
11203;SDS011;5659;49.408;11.116;2022-09-03T11:26:32;5.72;;;1.80;;
11203;SDS011;5659;49.408;11.116;2022-09-03T11:29:13;6.43;;;2.05;;
11203;SDS011;5659;49.408;11.116;2022-09-03T11:31:44;5.68;;;2.30;;
11203;SDS011;5659;49.408;11.116;2022-09-03T11:36:38;4.35;;;1.85;;
11203;SDS011;5659;49.408;11.116;2022-09-03T11:39:20;3.47;;;1.80;;
11203;SDS011;5659;49.408;11.116;2022-09-03T11:42:01;2.95;;;2.15;;
11203;SDS011;5659;49.408;11.116;2022-09-03T11:44:37;2.47;;;1.80;;
11203;SDS011;5659;49.408;11.116;2022-09-03T11:50:06;6.70;;;2.17;;
11203;SDS011;5659;49.408;11.116;2022-09-03T11:52:33;3.17;;;2.05;;
11203;SDS011;5659;49.408;11.116;2022-09-03T11:55:04;4.45;;;2.00;;
11203;SDS011;5659;49.408;11.116;2022-09-03T11:57:31;3.45;;;1.73;;
11203;SDS011;5659;49.408;11.116;2022-09-03T12:02:57;3.78;;;2.03;;
11203;SDS011;5659;49.408;11.116;2022-09-03T12:15:53;2.53;;;1.90;;
11203;SDS011;5659;49.408;11.116;2022-09-03T12:18:28;1.98;;;1.75;;
11203;SDS011;5659;49.408;11.116;2022-09-03T12:23:26;3.58;;;1.90;;
11203;SDS011;5659;49.408;11.116;2022-09-03T12:25:52;3.30;;;1.73;;
11203;SDS011;5659;49.408;11.116;2022-09-03T12:28:19;2.58;;;1.95;;
11203;SDS011;5659;49.408;11.116;2022-09-03T12:30:47;5.38;;;1.90;;
11203;SDS011;5659;49.408;11.116;2022-09-03T12:33:16;4.85;;;1.60;;
11203;SDS011;5659;49.408;11.116;2022-09-03T12:35:42;3.30;;;1.95;;
11203;SDS011;5659;49.408;11.116;2022-09-03T12:38:11;2.35;;;2.00;;
11203;SDS011;5659;49.408;11.116;2022-09-03T12:40:41;3.53;;;2.03;;
11203;SDS011;5659;49.408;11.116;2022-09-03T12:43:14;3.35;;;2.10;;
11203;SDS011;5659;49.408;11.116;2022-09-03T12:45:41;4.40;;;1.98;;
11203;SDS011;5659;49.408;11.116;2022-09-03T12:48:12;4.05;;;2.05;;
11203;SDS011;5659;49.408;11.116;2022-09-03T12:50:39;3.15;;;2.17;;
11203;SDS011;5659;49.408;11.116;2022-09-03T12:53:05;2.38;;;1.90;;
11203;SDS011;5659;49.408;11.116;2022-09-03T13:00:48;4.68;;;2.20;;
11203;SDS011;5659;49.408;11.116;2022-09-03T13:05:42;2.38;;;1.95;;
11203;SDS011;5659;49.408;11.116;2022-09-03T13:08:12;2.95;;;2.03;;
11203;SDS011;5659;49.408;11.116;2022-09-03T13:10:39;4.80;;;2.47;;
11203;SDS011;5659;49.408;11.116;2022-09-03T13:13:20;4.63;;;2.13;;
11203;SDS011;5659;49.408;11.116;2022-09-03T13:19:00;3.55;;;2.40;;
11203;SDS011;5659;49.408;11.116;2022-09-03T13:21:44;4.97;;;2.20;;
11203;SDS011;5659;49.408;11.116;2022-09-03T13:29:21;5.63;;;2.38;;
11203;SDS011;5659;49.408;11.116;2022-09-03T13:31:51;2.67;;;2.17;;
11203;SDS011;5659;49.408;11.116;2022-09-03T13:34:21;2.83;;;2.00;;
11203;SDS011;5659;49.408;11.116;2022-09-03T13:36:57;2.85;;;2.10;;
11203;SDS011;5659;49.408;11.116;2022-09-03T13:39:26;5.68;;;2.63;;
11203;SDS011;5659;49.408;11.116;2022-09-03T13:42:00;3.95;;;2.20;;
11203;SDS011;5659;49.408;11.116;2022-09-03T13:44:35;3.60;;;2.20;;
11203;SDS011;5659;49.408;11.116;2022-09-03T13:49:39;2.67;;;2.22;;
11203;SDS011;5659;49.408;11.116;2022-09-03T13:52:46;5.32;;;2.15;;
11203;SDS011;5659;49.408;11.116;2022-09-03T13:55:55;5.30;;;2.10;;
11203;SDS011;5659;49.408;11.116;2022-09-03T13:58:04;2.70;;;2.30;;
11203;SDS011;5659;49.408;11.116;2022-09-03T14:00:48;2.97;;;2.20;;
11203;SDS011;5659;49.408;11.116;2022-09-03T14:06:00;3.67;;;2.53;;
11203;SDS011;5659;49.408;11.116;2022-09-03T14:09:14;4.90;;;2.10;;
11203;SDS011;5659;49.408;11.116;2022-09-03T14:11:20;2.50;;;2.20;;
11203;SDS011;5659;49.408;11.116;2022-09-03T14:14:06;3.95;;;2.38;;
11203;SDS011;5659;49.408;11.116;2022-09-03T14:19:08;2.85;;;2.17;;
11203;SDS011;5659;49.408;11.116;2022-09-03T14:21:53;2.08;;;1.88;;
11203;SDS011;5659;49.408;11.116;2022-09-03T14:26:51;4.93;;;2.70;;
11203;SDS011;5659;49.408;11.116;2022-09-03T14:29:17;4.30;;;2.10;;
11203;SDS011;5659;49.408;11.116;2022-09-03T14:39:31;3.80;;;2.35;;
11203;SDS011;5659;49.408;11.116;2022-09-03T14:44:55;3.28;;;2.20;;
11203;SDS011;5659;49.408;11.116;2022-09-03T14:47:33;6.38;;;2.55;;
11203;SDS011;5659;49.408;11.116;2022-09-03T14:50:07;2.08;;;1.80;;
11203;SDS011;5659;49.408;11.116;2022-09-03T15:00:21;3.47;;;2.13;;
11203;SDS011;5659;49.408;11.116;2022-09-03T15:08:18;7.97;;;2.40;;
11203;SDS011;5659;49.408;11.116;2022-09-03T15:10:56;5.47;;;2.13;;
11203;SDS011;5659;49.408;11.116;2022-09-03T15:13:24;3.95;;;2.30;;
11203;SDS011;5659;49.408;11.116;2022-09-03T15:28:45;3.22;;;2.70;;
11203;SDS011;5659;49.408;11.116;2022-09-03T15:31:21;2.90;;;2.58;;
11203;SDS011;5659;49.408;11.116;2022-09-03T15:36:25;5.20;;;2.63;;
11203;SDS011;5659;49.408;11.116;2022-09-03T15:39:03;6.65;;;2.38;;
11203;SDS011;5659;49.408;11.116;2022-09-03T15:43:59;4.05;;;2.50;;
11203;SDS011;5659;49.408;11.116;2022-09-03T15:46:33;3.88;;;2.60;;
11203;SDS011;5659;49.408;11.116;2022-09-03T15:49:02;3.85;;;2.50;;
11203;SDS011;5659;49.408;11.116;2022-09-03T15:51:40;5.63;;;2.60;;
11203;SDS011;5659;49.408;11.116;2022-09-03T15:54:13;3.70;;;2.67;;
11203;SDS011;5659;49.408;11.116;2022-09-03T15:56:44;3.85;;;2.70;;
11203;SDS011;5659;49.408;11.116;2022-09-03T15:59:18;5.20;;;2.80;;
11203;SDS011;5659;49.408;11.116;2022-09-03T16:01:50;4.20;;;2.47;;
11203;SDS011;5659;49.408;11.116;2022-09-03T16:04:21;2.97;;;2.60;;
11203;SDS011;5659;49.408;11.116;2022-09-03T16:09:21;4.22;;;2.50;;
11203;SDS011;5659;49.408;11.116;2022-09-03T16:19:30;5.47;;;3.00;;
11203;SDS011;5659;49.408;11.116;2022-09-03T16:22:03;6.47;;;3.13;;
11203;SDS011;5659;49.408;11.116;2022-09-03T16:24:40;4.78;;;2.83;;
11203;SDS011;5659;49.408;11.116;2022-09-03T16:29:34;5.00;;;3.30;;
11203;SDS011;5659;49.408;11.116;2022-09-03T16:42:30;5.15;;;2.70;;
11203;SDS011;5659;49.408;11.116;2022-09-03T16:45:18;4.78;;;2.50;;
11203;SDS011;5659;49.408;11.116;2022-09-03T16:55:58;5.75;;;3.00;;
11203;SDS011;5659;49.408;11.116;2022-09-03T17:01:10;11.07;;;3.05;;
11203;SDS011;5659;49.408;11.116;2022-09-03T17:06:12;7.05;;;4.22;;
11203;SDS011;5659;49.408;11.116;2022-09-03T17:14:04;7.90;;;4.00;;
11203;SDS011;5659;49.408;11.116;2022-09-03T17:16:52;8.75;;;4.80;;
11203;SDS011;5659;49.408;11.116;2022-09-03T17:19:27;8.52;;;4.32;;
11203;SDS011;5659;49.408;11.116;2022-09-03T17:24:37;11.32;;;4.95;;
11203;SDS011;5659;49.408;11.116;2022-09-03T17:27:10;12.77;;;4.97;;
11203;SDS011;5659;49.408;11.116;2022-09-03T17:37:24;9.82;;;5.05;;
11203;SDS011;5659;49.408;11.116;2022-09-03T17:42:26;12.38;;;5.97;;
11203;SDS011;5659;49.408;11.116;2022-09-03T17:48:00;7.53;;;5.22;;
11203;SDS011;5659;49.408;11.116;2022-09-03T17:53:21;11.32;;;5.70;;
11203;SDS011;5659;49.408;11.116;2022-09-03T17:56:03;10.13;;;6.00;;
11203;SDS011;5659;49.408;11.116;2022-09-03T17:58:41;8.50;;;5.85;;
11203;SDS011;5659;49.408;11.116;2022-09-03T18:12:02;8.93;;;5.15;;
11203;SDS011;5659;49.408;11.116;2022-09-03T18:14:49;6.93;;;5.05;;
11203;SDS011;5659;49.408;11.116;2022-09-03T18:22:33;9.25;;;5.82;;
11203;SDS011;5659;49.408;11.116;2022-09-03T18:25:21;10.48;;;6.15;;
11203;SDS011;5659;49.408;11.116;2022-09-03T18:28:09;11.85;;;6.97;;
11203;SDS011;5659;49.408;11.116;2022-09-03T18:30:54;14.85;;;7.05;;
11203;SDS011;5659;49.408;11.116;2022-09-03T18:33:38;10.60;;;6.55;;
11203;SDS011;5659;49.408;11.116;2022-09-03T18:36:23;11.40;;;7.10;;
11203;SDS011;5659;49.408;11.116;2022-09-03T18:39:13;8.05;;;5.95;;
11203;SDS011;5659;49.408;11.116;2022-09-03T18:45:04;6.30;;;5.70;;
11203;SDS011;5659;49.408;11.116;2022-09-03T18:53:47;8.32;;;5.10;;
11203;SDS011;5659;49.408;11.116;2022-09-03T18:56:45;10.07;;;6.32;;
11203;SDS011;5659;49.408;11.116;2022-09-03T19:05:18;9.93;;;7.05;;
11203;SDS011;5659;49.408;11.116;2022-09-03T19:08:14;8.07;;;6.80;;
11203;SDS011;5659;49.408;11.116;2022-09-03T19:11:25;24.58;;;10.45;;
11203;SDS011;5659;49.408;11.116;2022-09-03T19:14:06;14.70;;;8.18;;
11203;SDS011;5659;49.408;11.116;2022-09-03T19:16:59;16.15;;;8.23;;
11203;SDS011;5659;49.408;11.116;2022-09-03T19:19:52;13.40;;;9.00;;
11203;SDS011;5659;49.408;11.116;2022-09-03T19:22:40;14.75;;;9.15;;
11203;SDS011;5659;49.408;11.116;2022-09-03T19:25:26;12.43;;;8.45;;
11203;SDS011;5659;49.408;11.116;2022-09-03T19:28:18;10.43;;;7.45;;
11203;SDS011;5659;49.408;11.116;2022-09-03T19:34:08;12.73;;;8.95;;
11203;SDS011;5659;49.408;11.116;2022-09-03T19:42:46;14.07;;;8.98;;